sensor_id;sensor_type;location;lat;lon;timestamp;pressure;altitude;pressure_sealevel;temperature;humidity
64792;BME280;51226;47.504;19.074;2023-11-18T00:01:21;100161.84;;;6.04;62.47
64792;BME280;51226;47.504;19.074;2023-11-18T00:04:24;100163.06;;;6.10;62.02
64792;BME280;51226;47.504;19.074;2023-11-18T00:08:12;100166.88;;;6.01;62.12
64792;BME280;51226;47.504;19.074;2023-11-18T00:11:52;100165.44;;;5.91;62.68
64792;BME280;51226;47.504;19.074;2023-11-18T00:15:49;100177.97;;;5.98;62.60
64792;BME280;51226;47.504;19.074;2023-11-18T00:19:14;100170.78;;;5.94;62.72
64792;BME280;51226;47.504;19.074;2023-11-18T00:22:26;100173.31;;;5.92;62.83
64792;BME280;51226;47.504;19.074;2023-11-18T00:25:36;100180.84;;;6.04;62.44
64792;BME280;51226;47.504;19.074;2023-11-18T00:28:44;100189.66;;;5.91;62.61
64792;BME280;51226;47.504;19.074;2023-11-18T00:32:09;100186.00;;;5.88;62.83
64792;BME280;51226;47.504;19.074;2023-11-18T00:35:30;100190.38;;;5.89;62.86
64792;BME280;51226;47.504;19.074;2023-11-18T00:38:51;100183.94;;;5.97;62.82
64792;BME280;51226;47.504;19.074;2023-11-18T00:42:03;100191.88;;;6.00;62.63
64792;BME280;51226;47.504;19.074;2023-11-18T00:45:26;100197.34;;;5.90;63.06
64792;BME280;51226;47.504;19.074;2023-11-18T00:48:46;100199.59;;;5.84;63.51
64792;BME280;51226;47.504;19.074;2023-11-18T00:52:20;100197.34;;;5.90;63.36
64792;BME280;51226;47.504;19.074;2023-11-18T00:55:37;100194.56;;;5.87;63.51
64792;BME280;51226;47.504;19.074;2023-11-18T00:59:16;100190.69;;;5.95;63.02
64792;BME280;51226;47.504;19.074;2023-11-18T01:03:09;100192.50;;;5.96;62.92
64792;BME280;51226;47.504;19.074;2023-11-18T01:10:31;100199.19;;;5.92;62.53
64792;BME280;51226;47.504;19.074;2023-11-18T01:13:35;100203.22;;;5.87;62.67
64792;BME280;51226;47.504;19.074;2023-11-18T01:16:40;100212.53;;;5.84;62.91
64792;BME280;51226;47.504;19.074;2023-11-18T01:19:57;100203.66;;;5.95;62.48
64792;BME280;51226;47.504;19.074;2023-11-18T01:24:03;100210.28;;;5.90;62.62
64792;BME280;51226;47.504;19.074;2023-11-18T01:27:47;100213.16;;;5.80;62.83
64792;BME280;51226;47.504;19.074;2023-11-18T01:30:57;100207.25;;;5.82;62.76
64792;BME280;51226;47.504;19.074;2023-11-18T01:34:24;100215.53;;;5.91;62.35
64792;BME280;51226;47.504;19.074;2023-11-18T01:37:41;100225.47;;;5.84;62.57
64792;BME280;51226;47.504;19.074;2023-11-18T01:40:56;100223.13;;;5.88;62.46
64792;BME280;51226;47.504;19.074;2023-11-18T01:44:21;100220.63;;;5.90;62.40
64792;BME280;51226;47.504;19.074;2023-11-18T01:47:34;100212.78;;;5.88;62.29
64792;BME280;51226;47.504;19.074;2023-11-18T01:50:58;100223.06;;;5.87;62.29
64792;BME280;51226;47.504;19.074;2023-11-18T01:54:01;100214.78;;;5.78;62.89
64792;BME280;51226;47.504;19.074;2023-11-18T01:57:06;100214.50;;;5.73;62.81
64792;BME280;51226;47.504;19.074;2023-11-18T02:00:09;100217.66;;;5.67;63.07
64792;BME280;51226;47.504;19.074;2023-11-18T02:03:14;100217.31;;;5.61;63.34
64792;BME280;51226;47.504;19.074;2023-11-18T02:06:17;100223.72;;;5.68;62.88
64792;BME280;51226;47.504;19.074;2023-11-18T02:09:22;100226.91;;;5.79;62.68
64792;BME280;51226;47.504;19.074;2023-11-18T02:12:57;100219.94;;;5.78;62.41
64792;BME280;51226;47.504;19.074;2023-11-18T02:16:05;100219.94;;;5.78;62.56
64792;BME280;51226;47.504;19.074;2023-11-18T02:19:20;100226.66;;;5.74;62.60
64792;BME280;51226;47.504;19.074;2023-11-18T02:22:27;100214.28;;;5.68;63.05
64792;BME280;51226;47.504;19.074;2023-11-18T02:25:33;100233.94;;;5.65;63.13
64792;BME280;51226;47.504;19.074;2023-11-18T02:28:38;100231.97;;;5.61;63.36
64792;BME280;51226;47.504;19.074;2023-11-18T02:31:42;100224.84;;;5.56;63.16
64792;BME280;51226;47.504;19.074;2023-11-18T02:34:56;100236.66;;;5.51;63.54
64792;BME280;51226;47.504;19.074;2023-11-18T02:38:04;100248.84;;;5.54;63.38
64792;BME280;51226;47.504;19.074;2023-11-18T02:41:13;100246.25;;;5.54;63.38
64792;BME280;51226;47.504;19.074;2023-11-18T02:44:18;100247.63;;;5.79;62.35
64792;BME280;51226;47.504;19.074;2023-11-18T02:47:23;100246.66;;;5.77;62.38
64792;BME280;51226;47.504;19.074;2023-11-18T02:50:27;100242.22;;;5.59;62.96
64792;BME280;51226;47.504;19.074;2023-11-18T02:53:32;100238.19;;;5.64;63.01
64792;BME280;51226;47.504;19.074;2023-11-18T02:56:36;100229.56;;;5.64;63.18
64792;BME280;51226;47.504;19.074;2023-11-18T02:59:39;100231.84;;;5.74;62.72
64792;BME280;51226;47.504;19.074;2023-11-18T03:02:42;100225.72;;;5.57;63.50
64792;BME280;51226;47.504;19.074;2023-11-18T03:05:46;100244.41;;;5.68;63.41
64792;BME280;51226;47.504;19.074;2023-11-18T03:08:52;100247.19;;;5.71;63.26
64792;BME280;51226;47.504;19.074;2023-11-18T03:11:55;100241.13;;;5.70;63.38
64792;BME280;51226;47.504;19.074;2023-11-18T03:15:02;100256.94;;;5.60;63.88
64792;BME280;51226;47.504;19.074;2023-11-18T03:18:05;100253.44;;;5.60;63.89
64792;BME280;51226;47.504;19.074;2023-11-18T03:21:12;100268.53;;;5.67;63.97
64792;BME280;51226;47.504;19.074;2023-11-18T03:24:15;100267.87;;;5.71;63.89
64792;BME280;51226;47.504;19.074;2023-11-18T03:27:19;100267.19;;;5.73;63.88
64792;BME280;51226;47.504;19.074;2023-11-18T03:30:22;100270.50;;;5.56;64.50
64792;BME280;51226;47.504;19.074;2023-11-18T03:33:25;100272.00;;;5.67;64.58
64792;BME280;51226;47.504;19.074;2023-11-18T03:36:29;100278.34;;;5.57;65.18
64792;BME280;51226;47.504;19.074;2023-11-18T03:39:32;100286.38;;;5.62;65.43
64792;BME280;51226;47.504;19.074;2023-11-18T03:42:39;100288.78;;;5.59;65.51
64792;BME280;51226;47.504;19.074;2023-11-18T03:45:45;100283.16;;;5.66;65.84
64792;BME280;51226;47.504;19.074;2023-11-18T03:48:48;100284.75;;;5.64;66.02
64792;BME280;51226;47.504;19.074;2023-11-18T03:51:51;100289.22;;;5.67;66.12
64792;BME280;51226;47.504;19.074;2023-11-18T03:54:55;100279.41;;;5.61;66.19
64792;BME280;51226;47.504;19.074;2023-11-18T03:57:58;100283.00;;;5.63;66.34
64792;BME280;51226;47.504;19.074;2023-11-18T04:01:01;100293.12;;;5.75;66.06
64792;BME280;51226;47.504;19.074;2023-11-18T04:04:04;100283.84;;;5.79;65.53
64792;BME280;51226;47.504;19.074;2023-11-18T04:07:07;100274.94;;;5.73;65.65
64792;BME280;51226;47.504;19.074;2023-11-18T04:10:10;100300.56;;;5.69;66.27
64792;BME280;51226;47.504;19.074;2023-11-18T04:13:14;100294.81;;;5.74;66.21
64792;BME280;51226;47.504;19.074;2023-11-18T04:16:17;100300.63;;;5.70;66.35
64792;BME280;51226;47.504;19.074;2023-11-18T04:19:20;100286.59;;;5.82;65.89
64792;BME280;51226;47.504;19.074;2023-11-18T04:22:23;100291.31;;;5.89;65.64
64792;BME280;51226;47.504;19.074;2023-11-18T04:25:28;100290.28;;;5.70;66.34
64792;BME280;51226;47.504;19.074;2023-11-18T04:28:31;100290.78;;;5.80;66.09
64792;BME280;51226;47.504;19.074;2023-11-18T04:31:34;100293.31;;;5.78;66.11
64792;BME280;51226;47.504;19.074;2023-11-18T04:34:39;100295.25;;;5.82;66.11
64792;BME280;51226;47.504;19.074;2023-11-18T04:37:41;100296.97;;;5.82;66.07
64792;BME280;51226;47.504;19.074;2023-11-18T04:40:46;100313.00;;;5.76;66.32
64792;BME280;51226;47.504;19.074;2023-11-18T04:43:49;100311.34;;;5.77;66.31
64792;BME280;51226;47.504;19.074;2023-11-18T04:46:52;100311.34;;;5.77;66.29
64792;BME280;51226;47.504;19.074;2023-11-18T04:49:56;100299.09;;;5.74;66.29
64792;BME280;51226;47.504;19.074;2023-11-18T04:53:00;100315.69;;;5.78;66.15
64792;BME280;51226;47.504;19.074;2023-11-18T04:56:03;100323.44;;;5.78;66.21
64792;BME280;51226;47.504;19.074;2023-11-18T04:59:06;100313.94;;;5.77;66.17
64792;BME280;51226;47.504;19.074;2023-11-18T05:02:09;100325.94;;;5.76;66.15
64792;BME280;51226;47.504;19.074;2023-11-18T05:05:12;100330.94;;;5.73;66.30
64792;BME280;51226;47.504;19.074;2023-11-18T05:08:20;100343.66;;;5.68;66.36
64792;BME280;51226;47.504;19.074;2023-11-18T05:11:24;100357.75;;;5.73;66.20
64792;BME280;51226;47.504;19.074;2023-11-18T05:14:28;100351.31;;;5.82;65.74
64792;BME280;51226;47.504;19.074;2023-11-18T05:17:39;100349.88;;;5.72;66.22
64792;BME280;51226;47.504;19.074;2023-11-18T05:20:43;100352.87;;;5.80;65.89
64792;BME280;51226;47.504;19.074;2023-11-18T05:23:46;100341.13;;;5.85;65.40
64792;BME280;51226;47.504;19.074;2023-11-18T05:26:49;100350.84;;;5.89;65.21
64792;BME280;51226;47.504;19.074;2023-11-18T05:29:52;100344.12;;;5.92;65.09
64792;BME280;51226;47.504;19.074;2023-11-18T05:32:58;100346.13;;;5.82;65.65
64792;BME280;51226;47.504;19.074;2023-11-18T05:36:12;100346.13;;;5.82;65.58
64792;BME280;51226;47.504;19.074;2023-11-18T05:39:16;100343.53;;;5.82;65.41
64792;BME280;51226;47.504;19.074;2023-11-18T05:42:20;100345.59;;;5.72;65.86
64792;BME280;51226;47.504;19.074;2023-11-18T05:45:25;100349.63;;;5.67;66.37
64792;BME280;51226;47.504;19.074;2023-11-18T05:48:31;100345.94;;;5.79;65.93
64792;BME280;51226;47.504;19.074;2023-11-18T05:51:34;100346.81;;;5.94;65.17
64792;BME280;51226;47.504;19.074;2023-11-18T05:54:38;100352.19;;;5.82;65.64
64792;BME280;51226;47.504;19.074;2023-11-18T05:57:41;100339.34;;;5.84;65.71
64792;BME280;51226;47.504;19.074;2023-11-18T06:00:48;100348.72;;;5.82;65.68
64792;BME280;51226;47.504;19.074;2023-11-18T06:03:51;100353.97;;;5.98;64.92
64792;BME280;51226;47.504;19.074;2023-11-18T06:06:54;100357.91;;;5.91;65.05
64792;BME280;51226;47.504;19.074;2023-11-18T06:09:57;100344.22;;;5.94;64.93
64792;BME280;51226;47.504;19.074;2023-11-18T06:13:00;100358.78;;;5.92;64.99
64792;BME280;51226;47.504;19.074;2023-11-18T06:16:04;100360.03;;;5.84;65.16
64792;BME280;51226;47.504;19.074;2023-11-18T06:19:07;100374.41;;;5.79;65.60
64792;BME280;51226;47.504;19.074;2023-11-18T06:22:11;100369.31;;;5.80;65.54
64792;BME280;51226;47.504;19.074;2023-11-18T06:25:13;100371.81;;;5.93;65.05
64792;BME280;51226;47.504;19.074;2023-11-18T06:28:17;100380.75;;;5.99;64.58
64792;BME280;51226;47.504;19.074;2023-11-18T06:31:21;100393.78;;;6.00;64.81
64792;BME280;51226;47.504;19.074;2023-11-18T06:34:24;100406.63;;;5.99;64.57
64792;BME280;51226;47.504;19.074;2023-11-18T06:37:32;100402.53;;;6.02;64.43
64792;BME280;51226;47.504;19.074;2023-11-18T06:40:36;100410.19;;;6.01;64.39
64792;BME280;51226;47.504;19.074;2023-11-18T06:43:40;100403.75;;;6.09;64.04
64792;BME280;51226;47.504;19.074;2023-11-18T06:47:00;100396.06;;;6.10;63.92
64792;BME280;51226;47.504;19.074;2023-11-18T06:50:05;100396.87;;;6.09;64.08
64792;BME280;51226;47.504;19.074;2023-11-18T06:53:11;100406.69;;;6.15;63.80
64792;BME280;51226;47.504;19.074;2023-11-18T06:56:14;100399.72;;;6.14;63.81
64792;BME280;51226;47.504;19.074;2023-11-18T06:59:18;100413.56;;;6.15;63.95
64792;BME280;51226;47.504;19.074;2023-11-18T07:02:22;100401.88;;;6.38;62.86
64792;BME280;51226;47.504;19.074;2023-11-18T07:05:25;100417.59;;;6.41;62.68
64792;BME280;51226;47.504;19.074;2023-11-18T07:08:28;100425.62;;;6.45;62.48
64792;BME280;51226;47.504;19.074;2023-11-18T07:11:31;100442.62;;;6.40;62.57
64792;BME280;51226;47.504;19.074;2023-11-18T07:14:34;100442.00;;;6.61;61.86
64792;BME280;51226;47.504;19.074;2023-11-18T07:17:38;100433.75;;;6.68;61.47
64792;BME280;51226;47.504;19.074;2023-11-18T07:20:40;100431.00;;;6.81;60.99
64792;BME280;51226;47.504;19.074;2023-11-18T07:23:44;100438.56;;;7.10;59.69
64792;BME280;51226;47.504;19.074;2023-11-18T07:26:47;100420.31;;;7.24;59.37
64792;BME280;51226;47.504;19.074;2023-11-18T07:29:51;100404.66;;;7.39;59.23
64792;BME280;51226;47.504;19.074;2023-11-18T07:32:55;100402.22;;;7.77;57.44
64792;BME280;51226;47.504;19.074;2023-11-18T07:36:02;100396.59;;;8.04;56.85
64792;BME280;51226;47.504;19.074;2023-11-18T07:39:08;100386.59;;;8.31;55.75
64792;BME280;51226;47.504;19.074;2023-11-18T07:42:19;100394.28;;;8.46;55.28
64792;BME280;51226;47.504;19.074;2023-11-18T07:45:24;100406.00;;;8.75;54.39
64792;BME280;51226;47.504;19.074;2023-11-18T07:48:28;100408.81;;;8.99;53.91
64792;BME280;51226;47.504;19.074;2023-11-18T07:51:30;100412.81;;;9.32;52.54
64792;BME280;51226;47.504;19.074;2023-11-18T07:54:33;100413.78;;;9.74;51.02
64792;BME280;51226;47.504;19.074;2023-11-18T07:57:36;100411.72;;;10.09;49.88
64792;BME280;51226;47.504;19.074;2023-11-18T08:00:40;100426.22;;;10.69;48.41
64792;BME280;51226;47.504;19.074;2023-11-18T08:03:45;100451.13;;;11.56;45.85
64792;BME280;51226;47.504;19.074;2023-11-18T08:06:52;100454.28;;;13.09;42.95
64792;BME280;51226;47.504;19.074;2023-11-18T08:09:56;100435.66;;;15.09;38.64
64792;BME280;51226;47.504;19.074;2023-11-18T08:13:00;100426.56;;;17.01;35.63
64792;BME280;51226;47.504;19.074;2023-11-18T08:16:07;100432.91;;;18.00;32.98
64792;BME280;51226;47.504;19.074;2023-11-18T08:19:12;100429.09;;;18.94;31.26
64792;BME280;51226;47.504;19.074;2023-11-18T08:22:16;100438.88;;;21.13;28.51
64792;BME280;51226;47.504;19.074;2023-11-18T08:25:21;100437.72;;;23.44;25.02
64792;BME280;51226;47.504;19.074;2023-11-18T08:28:25;100450.59;;;24.81;22.91
64792;BME280;51226;47.504;19.074;2023-11-18T08:31:30;100434.00;;;25.09;22.68
64792;BME280;51226;47.504;19.074;2023-11-18T08:34:36;100429.28;;;24.30;23.02
64792;BME280;51226;47.504;19.074;2023-11-18T08:37:43;100434.56;;;25.26;21.97
64792;BME280;51226;47.504;19.074;2023-11-18T08:40:47;100431.69;;;25.75;21.70
64792;BME280;51226;47.504;19.074;2023-11-18T08:43:51;100428.72;;;25.49;21.88
64792;BME280;51226;47.504;19.074;2023-11-18T08:46:57;100430.16;;;24.78;22.64
64792;BME280;51226;47.504;19.074;2023-11-18T08:50:02;100438.47;;;25.08;22.04
64792;BME280;51226;47.504;19.074;2023-11-18T08:53:14;100448.59;;;26.47;20.85
64792;BME280;51226;47.504;19.074;2023-11-18T08:56:21;100457.41;;;27.16;19.87
64792;BME280;51226;47.504;19.074;2023-11-18T08:59:34;100448.84;;;26.02;20.39
64792;BME280;51226;47.504;19.074;2023-11-18T09:02:40;100439.22;;;27.26;19.46
64792;BME280;51226;47.504;19.074;2023-11-18T09:05:57;100455.00;;;27.37;19.20
64792;BME280;51226;47.504;19.074;2023-11-18T09:09:00;100451.25;;;27.11;19.24
64792;BME280;51226;47.504;19.074;2023-11-18T09:12:11;100448.97;;;25.58;20.39
64792;BME280;51226;47.504;19.074;2023-11-18T09:15:21;100466.97;;;25.08;21.28
64792;BME280;51226;47.504;19.074;2023-11-18T09:18:29;100475.72;;;24.16;22.67
64792;BME280;51226;47.504;19.074;2023-11-18T09:21:43;100479.97;;;23.71;23.14
64792;BME280;51226;47.504;19.074;2023-11-18T09:24:47;100495.84;;;23.77;23.61
64792;BME280;51226;47.504;19.074;2023-11-18T09:27:52;100480.22;;;22.78;23.74
64792;BME280;51226;47.504;19.074;2023-11-18T09:30:58;100487.16;;;21.90;25.24
64792;BME280;51226;47.504;19.074;2023-11-18T09:34:03;100486.69;;;22.50;24.22
64792;BME280;51226;47.504;19.074;2023-11-18T09:37:09;100473.81;;;21.96;24.59
64792;BME280;51226;47.504;19.074;2023-11-18T09:40:16;100488.53;;;20.30;26.56
64792;BME280;51226;47.504;19.074;2023-11-18T09:43:20;100486.28;;;18.78;28.61
64792;BME280;51226;47.504;19.074;2023-11-18T09:46:28;100487.97;;;17.69;30.26
64792;BME280;51226;47.504;19.074;2023-11-18T09:49:48;100464.59;;;16.59;31.98
64792;BME280;51226;47.504;19.074;2023-11-18T09:52:57;100476.41;;;15.76;33.69
64792;BME280;51226;47.504;19.074;2023-11-18T09:56:16;100480.69;;;16.77;32.66
64792;BME280;51226;47.504;19.074;2023-11-18T09:59:32;100471.75;;;19.91;28.19
64792;BME280;51226;47.504;19.074;2023-11-18T10:02:39;100456.53;;;21.18;26.48
64792;BME280;51226;47.504;19.074;2023-11-18T10:05:46;100450.72;;;23.66;23.37
64792;BME280;51226;47.504;19.074;2023-11-18T10:08:50;100432.16;;;25.55;21.13
64792;BME280;51226;47.504;19.074;2023-11-18T10:11:56;100438.47;;;26.58;19.89
64792;BME280;51226;47.504;19.074;2023-11-18T10:15:08;100461.41;;;26.69;19.76
64792;BME280;51226;47.504;19.074;2023-11-18T10:18:15;100439.97;;;27.02;19.28
64792;BME280;51226;47.504;19.074;2023-11-18T10:21:35;100423.34;;;27.78;18.29
64792;BME280;51226;47.504;19.074;2023-11-18T10:24:46;100428.16;;;27.97;18.48
64792;BME280;51226;47.504;19.074;2023-11-18T10:27:49;100430.53;;;28.58;17.72
64792;BME280;51226;47.504;19.074;2023-11-18T10:30:55;100448.88;;;29.19;17.15
64792;BME280;51226;47.504;19.074;2023-11-18T10:34:01;100433.19;;;29.76;16.58
64792;BME280;51226;47.504;19.074;2023-11-18T10:37:10;100452.22;;;29.93;16.49
64792;BME280;51226;47.504;19.074;2023-11-18T10:40:14;100442.75;;;30.05;15.98
64792;BME280;51226;47.504;19.074;2023-11-18T10:43:21;100439.50;;;30.19;15.89
64792;BME280;51226;47.504;19.074;2023-11-18T10:46:27;100446.41;;;29.36;16.35
64792;BME280;51226;47.504;19.074;2023-11-18T10:49:31;100461.16;;;27.09;18.45
64792;BME280;51226;47.504;19.074;2023-11-18T10:52:40;100444.66;;;25.90;19.87
64792;BME280;51226;47.504;19.074;2023-11-18T10:55:45;100459.28;;;24.42;21.34
64792;BME280;51226;47.504;19.074;2023-11-18T10:58:48;100462.84;;;22.43;23.38
64792;BME280;51226;47.504;19.074;2023-11-18T11:01:53;100468.84;;;21.32;24.96
64792;BME280;51226;47.504;19.074;2023-11-18T11:05:01;100473.50;;;20.68;25.62
64792;BME280;51226;47.504;19.074;2023-11-18T11:08:06;100474.41;;;20.42;26.27
64792;BME280;51226;47.504;19.074;2023-11-18T11:11:10;100464.37;;;18.95;27.87
64792;BME280;51226;47.504;19.074;2023-11-18T11:14:21;100483.78;;;19.01;27.96
64792;BME280;51226;47.504;19.074;2023-11-18T11:17:29;100472.03;;;18.55;28.55
64792;BME280;51226;47.504;19.074;2023-11-18T11:20:39;100496.59;;;18.46;28.76
64792;BME280;51226;47.504;19.074;2023-11-18T11:24:04;100490.25;;;18.21;28.97
64792;BME280;51226;47.504;19.074;2023-11-18T11:27:33;100504.69;;;17.69;29.81
64792;BME280;51226;47.504;19.074;2023-11-18T11:30:58;100514.84;;;17.37;29.82
64792;BME280;51226;47.504;19.074;2023-11-18T11:34:20;100524.87;;;16.97;30.55
64792;BME280;51226;47.504;19.074;2023-11-18T11:37:27;100519.91;;;17.18;30.39
64792;BME280;51226;47.504;19.074;2023-11-18T11:40:36;100521.03;;;17.40;30.52
64792;BME280;51226;47.504;19.074;2023-11-18T11:43:40;100517.69;;;17.54;30.39
64792;BME280;51226;47.504;19.074;2023-11-18T11:46:45;100518.72;;;17.67;30.17
64792;BME280;51226;47.504;19.074;2023-11-18T11:49:55;100511.53;;;17.53;30.25
64792;BME280;51226;47.504;19.074;2023-11-18T11:53:10;100533.69;;;17.68;30.10
64792;BME280;51226;47.504;19.074;2023-11-18T11:56:19;100528.31;;;17.58;29.58
64792;BME280;51226;47.504;19.074;2023-11-18T12:02:52;100541.50;;;20.47;25.98
64792;BME280;51226;47.504;19.074;2023-11-18T12:05:59;100530.62;;;21.75;24.06
64792;BME280;51226;47.504;19.074;2023-11-18T12:09:15;100532.59;;;22.68;22.89
64792;BME280;51226;47.504;19.074;2023-11-18T12:12:26;100540.97;;;23.19;22.47
64792;BME280;51226;47.504;19.074;2023-11-18T12:15:48;100545.69;;;23.65;21.85
64792;BME280;51226;47.504;19.074;2023-11-18T12:19:33;100533.78;;;23.97;21.60
64792;BME280;51226;47.504;19.074;2023-11-18T12:23:06;100547.47;;;23.66;21.91
64792;BME280;51226;47.504;19.074;2023-11-18T12:26:39;100527.75;;;22.05;23.29
64792;BME280;51226;47.504;19.074;2023-11-18T12:29:46;100541.41;;;21.31;24.23
64792;BME280;51226;47.504;19.074;2023-11-18T12:43:02;100549.50;;;25.62;19.61
64792;BME280;51226;47.504;19.074;2023-11-18T12:49:38;100534.91;;;28.12;17.15
64792;BME280;51226;47.504;19.074;2023-11-18T12:52:44;100538.63;;;28.61;17.13
64792;BME280;51226;47.504;19.074;2023-11-18T12:55:47;100546.00;;;28.81;16.72
64792;BME280;51226;47.504;19.074;2023-11-18T12:58:51;100553.09;;;28.84;16.88
64792;BME280;51226;47.504;19.074;2023-11-18T13:01:54;100564.22;;;26.58;18.30
64792;BME280;51226;47.504;19.074;2023-11-18T13:05:05;100557.19;;;24.33;20.53
64792;BME280;51226;47.504;19.074;2023-11-18T13:08:08;100562.06;;;22.42;22.52
64792;BME280;51226;47.504;19.074;2023-11-18T13:11:18;100564.47;;;20.56;24.89
64792;BME280;51226;47.504;19.074;2023-11-18T13:14:21;100548.81;;;18.82;27.20
64792;BME280;51226;47.504;19.074;2023-11-18T13:17:25;100566.41;;;17.13;29.09
64792;BME280;51226;47.504;19.074;2023-11-18T13:20:30;100573.59;;;16.17;30.99
64792;BME280;51226;47.504;19.074;2023-11-18T13:23:36;100572.03;;;15.40;32.16
64792;BME280;51226;47.504;19.074;2023-11-18T13:26:40;100584.91;;;14.88;33.66
64792;BME280;51226;47.504;19.074;2023-11-18T13:29:47;100598.91;;;14.20;34.42
64792;BME280;51226;47.504;19.074;2023-11-18T13:32:56;100598.88;;;13.56;35.29
64792;BME280;51226;47.504;19.074;2023-11-18T13:36:00;100589.03;;;13.19;36.41
64792;BME280;51226;47.504;19.074;2023-11-18T13:39:05;100619.81;;;12.71;37.64
64792;BME280;51226;47.504;19.074;2023-11-18T13:42:26;100602.56;;;12.25;38.57
64792;BME280;51226;47.504;19.074;2023-11-18T13:45:34;100614.00;;;11.80;39.72
64792;BME280;51226;47.504;19.074;2023-11-18T13:48:41;100618.16;;;11.51;40.48
64792;BME280;51226;47.504;19.074;2023-11-18T13:51:44;100621.78;;;11.32;41.11
64792;BME280;51226;47.504;19.074;2023-11-18T13:54:48;100621.13;;;11.15;41.69
64792;BME280;51226;47.504;19.074;2023-11-18T13:57:58;100623.66;;;10.91;42.28
64792;BME280;51226;47.504;19.074;2023-11-18T14:01:02;100629.53;;;10.64;42.82
64792;BME280;51226;47.504;19.074;2023-11-18T14:04:17;100623.03;;;10.54;43.41
64792;BME280;51226;47.504;19.074;2023-11-18T14:07:38;100618.06;;;10.40;43.22
64792;BME280;51226;47.504;19.074;2023-11-18T14:10:56;100611.97;;;10.19;43.64
64792;BME280;51226;47.504;19.074;2023-11-18T14:14:06;100629.63;;;10.06;43.73
64792;BME280;51226;47.504;19.074;2023-11-18T14:17:11;100632.06;;;9.83;44.13
64792;BME280;51226;47.504;19.074;2023-11-18T14:20:14;100642.97;;;9.74;44.18
64792;BME280;51226;47.504;19.074;2023-11-18T14:23:17;100646.16;;;9.69;44.63
64792;BME280;51226;47.504;19.074;2023-11-18T14:26:30;100635.97;;;9.73;45.12
64792;BME280;51226;47.504;19.074;2023-11-18T14:30:17;100634.50;;;9.60;45.81
64792;BME280;51226;47.504;19.074;2023-11-18T14:33:22;100641.53;;;9.43;46.02
64792;BME280;51226;47.504;19.074;2023-11-18T14:36:26;100645.50;;;9.35;46.44
64792;BME280;51226;47.504;19.074;2023-11-18T14:39:31;100640.25;;;9.16;46.79
64792;BME280;51226;47.504;19.074;2023-11-18T14:42:35;100657.00;;;9.21;47.01
64792;BME280;51226;47.504;19.074;2023-11-18T14:45:40;100663.22;;;9.06;47.04
64792;BME280;51226;47.504;19.074;2023-11-18T14:48:43;100672.53;;;9.01;47.30
64792;BME280;51226;47.504;19.074;2023-11-18T14:51:46;100672.28;;;8.97;47.25
64792;BME280;51226;47.504;19.074;2023-11-18T14:54:49;100676.44;;;8.93;47.56
64792;BME280;51226;47.504;19.074;2023-11-18T14:57:55;100679.66;;;8.87;48.18
64792;BME280;51226;47.504;19.074;2023-11-18T15:00:58;100684.09;;;8.90;48.13
64792;BME280;51226;47.504;19.074;2023-11-18T15:04:03;100688.03;;;8.82;48.31
64792;BME280;51226;47.504;19.074;2023-11-18T15:07:09;100690.34;;;8.76;48.31
64792;BME280;51226;47.504;19.074;2023-11-18T15:10:12;100694.09;;;8.64;48.52
64792;BME280;51226;47.504;19.074;2023-11-18T15:13:16;100699.22;;;8.63;48.58
64792;BME280;51226;47.504;19.074;2023-11-18T15:16:19;100704.16;;;8.42;48.65
64792;BME280;51226;47.504;19.074;2023-11-18T15:19:23;100706.75;;;8.42;48.59
64792;BME280;51226;47.504;19.074;2023-11-18T15:22:26;100710.03;;;8.38;48.73
64792;BME280;51226;47.504;19.074;2023-11-18T15:25:30;100706.69;;;8.40;48.55
64792;BME280;51226;47.504;19.074;2023-11-18T15:28:33;100702.00;;;8.33;48.80
64792;BME280;51226;47.504;19.074;2023-11-18T15:31:36;100716.69;;;8.16;49.12
64792;BME280;51226;47.504;19.074;2023-11-18T15:34:39;100731.41;;;8.15;49.21
64792;BME280;51226;47.504;19.074;2023-11-18T15:37:45;100721.47;;;8.08;49.36
64792;BME280;51226;47.504;19.074;2023-11-18T15:40:50;100739.13;;;8.14;49.54
64792;BME280;51226;47.504;19.074;2023-11-18T15:43:54;100742.50;;;7.96;49.60
64792;BME280;51226;47.504;19.074;2023-11-18T15:46:56;100752.31;;;7.86;49.88
64792;BME280;51226;47.504;19.074;2023-11-18T15:50:00;100746.47;;;7.90;49.82
64792;BME280;51226;47.504;19.074;2023-11-18T15:53:03;100743.69;;;7.70;50.29
64792;BME280;51226;47.504;19.074;2023-11-18T15:56:09;100747.25;;;7.72;50.13
64792;BME280;51226;47.504;19.074;2023-11-18T15:59:12;100750.72;;;7.73;50.26
64792;BME280;51226;47.504;19.074;2023-11-18T16:02:15;100745.06;;;7.64;51.41
64792;BME280;51226;47.504;19.074;2023-11-18T16:05:21;100734.91;;;7.68;51.24
64792;BME280;51226;47.504;19.074;2023-11-18T16:08:24;100742.37;;;7.62;51.45
64792;BME280;51226;47.504;19.074;2023-11-18T16:11:29;100742.16;;;7.74;50.95
64792;BME280;51226;47.504;19.074;2023-11-18T16:14:31;100747.66;;;7.80;50.39
64792;BME280;51226;47.504;19.074;2023-11-18T16:17:34;100728.50;;;7.78;50.53
64792;BME280;51226;47.504;19.074;2023-11-18T16:20:37;100741.09;;;7.70;50.57
64792;BME280;51226;47.504;19.074;2023-11-18T16:23:40;100747.34;;;7.74;50.29
64792;BME280;51226;47.504;19.074;2023-11-18T16:26:43;100739.38;;;7.71;50.68
64792;BME280;51226;47.504;19.074;2023-11-18T16:29:50;100742.78;;;7.70;50.58
64792;BME280;51226;47.504;19.074;2023-11-18T16:32:53;100753.62;;;7.63;50.69
64792;BME280;51226;47.504;19.074;2023-11-18T16:36:00;100759.88;;;7.66;50.76
64792;BME280;51226;47.504;19.074;2023-11-18T16:39:03;100754.72;;;7.51;51.39